Time;durP1;ratioP1;P1;durP2;ratioP2;P2;SDS_P1;SDS_P2;PMS_P1;PMS_P2;Temp;Humidity;BMP_temperature;BMP_pressure;BME280_temperature;BME280_humidity;BME280_pressure;Samples;Min_cycle;Max_cycle;Signal;HPM_P1;HPM_P2
2023/10/10 00:00:57;;;;;;;3.28;0.90;;;;;;;12.53;100.00;100758.47;4979884;28;20096;-75
2023/10/10 00:03:26;;;;;;;0.50;0.50;;;;;;;11.99;100.00;100669.13;4977947;28;20045;-75
2023/10/10 00:05:53;;;;;;;4.32;3.00;;;;;;;12.35;100.00;100756.75;4982611;28;21816;-74
2023/10/10 00:08:23;;;;;;;0.40;0.40;;;;;;;12.28;100.00;100733.97;4978712;28;20839;-77
2023/10/10 00:10:50;;;;;;;3.15;1.60;;;;;;;12.35;100.00;100749.72;4984035;28;20644;-75
2023/10/10 00:13:17;;;;;;;0.55;0.52;;;;;;;11.62;100.00;100630.56;4986291;28;20058;-76
2023/10/10 00:15:50;;;;;;;0.50;0.50;;;;;;;12.10;100.00;100727.84;4985953;28;20137;-76
2023/10/10 00:18:21;;;;;;;16.35;2.80;;;;;;;11.32;100.00;100635.84;4983781;28;20103;-76
2023/10/10 00:21:10;;;;;;;0.35;0.35;;;;;;;11.96;100.00;100729.59;4982329;28;20285;-77
2023/10/10 00:23:47;;;;;;;1.13;1.02;;;;;;;11.50;100.00;100643.72;4985434;28;20022;-76
2023/10/10 00:26:19;;;;;;;1.20;1.10;;;;;;;11.47;100.00;100664.75;4987284;28;20034;-77
2023/10/10 00:28:45;;;;;;;2.95;1.20;;;;;;;11.87;100.00;100735.75;4986280;28;20053;-75
2023/10/10 00:31:17;;;;;;;0.70;0.50;;;;;;;11.33;100.00;100645.44;4979790;28;20050;-78
2023/10/10 00:33:43;;;;;;;0.73;0.65;;;;;;;11.39;100.00;100642.84;4982609;28;20553;-76
2023/10/10 00:36:12;;;;;;;1.27;1.17;;;;;;;11.65;100.00;100703.28;4982214;28;20065;-76
2023/10/10 00:38:38;;;;;;;1.13;0.88;;;;;;;11.93;100.00;100759.41;4984725;28;20090;-76
2023/10/10 00:41:07;;;;;;;0.63;0.52;;;;;;;11.81;100.00;100751.50;4979185;28;20050;-76
2023/10/10 00:43:33;;;;;;;1.30;1.15;;;;;;;11.88;100.00;100760.31;4984177;28;20897;-77
2023/10/10 00:46:04;;;;;;;0.88;0.82;;;;;;;11.78;100.00;100731.34;4981616;28;20058;-77
2023/10/10 00:48:32;;;;;;;1.30;1.15;;;;;;;11.46;100.00;100663.00;4984529;28;20200;-75
2023/10/10 00:51:09;;;;;;;0.57;0.57;;;;;;;11.67;100.00;100714.69;4985371;28;20042;-77
2023/10/10 00:53:36;;;;;;;0.52;0.47;;;;;;;11.46;100.00;100655.09;4980277;28;20344;-76
2023/10/10 00:56:05;;;;;;;1.05;0.75;;;;;;;12.02;100.00;100748.88;4981043;28;20093;-77
2023/10/10 00:58:38;;;;;;;1.10;1.00;;;;;;;11.96;100.00;100751.53;4982016;28;20096;-77
2023/10/10 01:01:19;;;;;;;4.53;2.58;;;;;;;11.28;100.00;100621.81;4979937;28;20057;-77
2023/10/10 01:03:50;;;;;;;0.80;0.80;;;;;;;11.30;100.00;100635.81;4984188;28;20053;-77
2023/10/10 01:06:25;;;;;;;2.03;1.63;;;;;;;11.73;100.00;100711.16;4981507;28;20050;-74
2023/10/10 01:09:39;;;;;;;0.70;0.57;;;;;;;11.11;100.00;100623.56;4984600;28;20081;-75
2023/10/10 01:11:43;;;;;;;1.98;1.65;;;;;;;11.22;100.00;100658.59;4976757;28;20073;-74
2023/10/10 01:14:09;;;;;;;0.70;0.70;;;;;;;11.09;100.00;100704.09;4985337;28;20474;-75
2023/10/10 01:16:35;;;;;;;1.15;0.65;;;;;;;10.50;100.00;100619.91;4984223;28;20675;-75
2023/10/10 01:19:02;;;;;;;0.22;0.22;;;;;;;10.53;100.00;100646.16;4981692;28;20081;-77
2023/10/10 01:21:30;;;;;;;1.27;0.52;;;;;;;11.13;100.00;100737.38;4983188;28;20042;-77
2023/10/10 01:24:00;;;;;;;5.05;1.05;;;;;;;11.17;100.00;100739.13;4980055;28;20058;-75
2023/10/10 01:26:36;;;;;;;0.95;0.68;;;;;;;11.17;100.00;100734.75;4985422;28;20483;-76
2023/10/10 01:29:25;;;;;;;0.45;0.45;;;;;;;10.46;100.00;100641.75;4979787;28;20026;-76
2023/10/10 01:31:54;;;;;;;3.63;3.13;;;;;;;10.96;100.00;100735.56;4981240;28;20054;-74
2023/10/10 01:37:20;;;;;;;1.67;1.27;;;;;;;10.41;100.00;100692.44;4981333;28;20458;-76
2023/10/10 01:40:16;;;;;;;12.98;1.42;;;;;;;10.60;100.00;100732.78;4980223;28;21339;-76
2023/10/10 01:42:51;;;;;;;0.30;0.30;;;;;;;10.46;100.00;100716.97;4978300;28;20062;-76
2023/10/10 01:45:19;;;;;;;1.75;1.33;;;;;;;9.91;100.00;100628.34;4979274;28;20050;-75
2023/10/10 01:47:56;;;;;;;0.77;0.40;;;;;;;9.94;100.00;100626.59;4980889;28;20134;-75
2023/10/10 01:50:30;;;;;;;0.73;0.63;;;;;;;10.63;100.00;100752.06;4980486;28;20085;-77
2023/10/10 01:52:56;;;;;;;0.20;0.20;;;;;;;10.04;100.00;100639.75;4977857;28;20237;-76
2023/10/10 01:55:24;;;;;;;1.23;1.00;;;;;;;10.71;100.00;100724.09;4983627;28;20056;-75
2023/10/10 01:57:53;;;;;;;0.60;0.60;;;;;;;10.22;100.00;100625.88;4985029;28;20152;-77
2023/10/10 02:02:52;;;;;;;1.35;1.27;;;;;;;10.98;100.00;100756.59;4986362;28;20108;-76
2023/10/10 02:05:32;;;;;;;0.30;0.30;;;;;;;10.99;100.00;100753.94;4986941;28;20054;-76
2023/10/10 02:07:57;;;;;;;1.48;1.40;;;;;;;10.85;100.00;100753.03;4983756;28;20474;-77
2023/10/10 02:10:29;;;;;;;1.20;1.08;;;;;;;10.29;100.00;100657.41;4979888;28;20050;-76
2023/10/10 02:12:59;;;;;;;2.75;2.25;;;;;;;10.54;100.00;100712.66;4984115;28;20046;-76
2023/10/10 02:15:32;;;;;;;2.35;2.15;;;;;;;10.22;100.00;100639.00;4975301;28;20042;-76
2023/10/10 02:18:04;;;;;;;31.98;3.45;;;;;;;10.23;100.00;100627.63;4985767;28;20057;-77
2023/10/10 02:23:08;;;;;;;0.50;0.50;;;;;;;10.43;100.00;100743.19;4987310;28;20030;-76
2023/10/10 02:25:40;;;;;;;2.85;2.53;;;;;;;10.50;100.00;100732.72;4985459;28;20042;-75
2023/10/10 02:28:19;;;;;;;1.05;0.98;;;;;;;10.81;100.00;100768.75;4979799;28;20050;-75
2023/10/10 02:30:49;;;;;;;0.20;0.20;;;;;;;10.71;100.00;100770.44;4985679;28;20129;-77
2023/10/10 02:38:23;;;;;;;0.20;0.20;;;;;;;10.72;100.00;100770.47;4980575;28;20097;-77
2023/10/10 02:40:55;;;;;;;3.05;2.05;;;;;;;10.60;100.00;100740.66;4986277;28;20038;-75
2023/10/10 02:43:45;;;;;;;1.23;1.13;;;;;;;10.52;100.00;100691.63;4982735;28;20051;-75
2023/10/10 02:46:17;;;;;;;2.58;0.73;;;;;;;10.83;100.00;100774.88;4985112;28;20057;-76
2023/10/10 02:48:53;;;;;;;2.90;2.38;;;;;;;10.10;100.00;100653.78;4980641;28;20100;-77
2023/10/10 02:51:20;;;;;;;1.30;1.20;;;;;;;10.45;100.00;100736.19;4979486;28;20522;-76
2023/10/10 02:53:46;;;;;;;1.65;1.55;;;;;;;10.51;100.00;100757.22;4977543;28;20059;-75
2023/10/10 02:56:19;;;;;;;0.20;0.20;;;;;;;10.02;100.00;100684.34;5018159;28;20746;-77
2023/10/10 02:58:45;;;;;;;9.73;2.43;;;;;;;10.93;100.00;100774.94;4985646;28;20047;-75
2023/10/10 03:01:26;;;;;;;0.35;0.35;;;;;;;10.38;100.00;100655.72;5016838;28;20229;-75
2023/10/10 03:03:54;;;;;;;0.20;0.20;;;;;;;9.90;100.00;100656.31;4985996;28;20051;-75
2023/10/10 03:06:28;;;;;;;7.95;3.50;;;;;;;10.34;100.00;100773.72;4980235;28;20051;-75
2023/10/10 03:09:06;;;;;;;4.38;3.97;;;;;;;10.51;100.00;100754.59;4985664;28;20129;-77
2023/10/10 03:11:52;;;;;;;7.13;4.20;;;;;;;10.58;100.00;100764.25;4982121;28;20077;-75
2023/10/10 03:14:26;;;;;;;2.80;2.13;;;;;;;10.09;100.00;100638.03;4981265;28;20022;-75
2023/10/10 03:17:31;;;;;;;2.67;2.47;;;;;;;10.38;100.00;100742.28;4984022;28;20034;-75
2023/10/10 03:19:41;;;;;;;4.50;3.38;;;;;;;9.96;100.00;100701.75;4985443;28;20053;-75
2023/10/10 03:25:07;;;;;;;0.30;0.30;;;;;;;10.68;100.00;100737.19;4983480;28;20164;-75
2023/10/10 03:30:16;;;;;;;2.85;1.75;;;;;;;10.37;100.00;100673.19;4982496;28;20092;-77
2023/10/10 03:33:08;;;;;;;1.60;1.13;;;;;;;11.03;100.00;100785.47;4985752;28;20054;-77
2023/10/10 03:38:58;;;;;;;1.00;0.98;;;;;;;11.01;100.00;100789.84;4979845;28;20100;-77
2023/10/10 05:25:15;;;;;;;1.20;1.13;;;;;;;10.29;100.00;100793.78;4982713;28;20081;-77
2023/10/10 05:27:41;;;;;;;0.20;0.20;;;;;;;10.00;100.00;100777.81;4981253;28;20116;-75
2023/10/10 05:30:39;;;;;;;1.08;0.98;;;;;;;10.73;100.00;100897.31;4983968;28;20039;-76
2023/10/10 05:33:02;;;;;;;0.70;0.70;;;;;;;10.32;100.00;100793.84;4982187;28;20043;-75
2023/10/10 05:35:29;;;;;;;0.22;0.22;;;;;;;10.17;100.00;100790.19;4981734;28;20391;-77
2023/10/10 05:37:55;;;;;;;1.63;1.48;;;;;;;11.15;100.00;100896.72;4986978;28;20030;-76
2023/10/10 05:40:21;;;;;;;0.50;0.50;;;;;;;11.11;100.00;100900.19;4983895;28;20042;-75
2023/10/10 05:42:46;;;;;;;4.25;1.00;;;;;;;10.55;100.00;100861.31;4968677;28;20112;-74
2023/10/10 05:45:14;;;;;;;1.42;1.33;;;;;;;10.13;100.00;100797.13;4968196;28;20062;-75
2023/10/10 05:47:40;;;;;;;0.68;0.57;;;;;;;10.86;100.00;100888.66;4970711;28;20076;-75
2023/10/10 05:50:10;;;;;;;13.20;2.00;;;;;;;11.25;100.00;100931.78;4987249;28;20053;-74
2023/10/10 05:52:38;;;;;;;2.63;2.42;;;;;;;10.92;100.00;100830.94;4976883;28;20050;-75
2023/10/10 05:55:10;;;;;;;1.20;1.10;;;;;;;11.70;100.00;100934.63;4985414;28;20055;-75
2023/10/10 05:57:39;;;;;;;2.83;2.50;;;;;;;11.74;100.00;100920.63;4985158;28;20145;-77
2023/10/10 06:00:10;;;;;;;4.53;1.50;;;;;;;11.57;100.00;100905.66;5017787;28;20046;-75
2023/10/10 06:02:47;;;;;;;0.65;0.65;;;;;;;10.94;100.00;100818.69;4983343;28;20347;-77
2023/10/10 06:05:17;;;;;;;1.98;1.80;;;;;;;10.90;100.00;100795.03;4975822;28;20522;-76
2023/10/10 06:07:43;;;;;;;1.45;1.35;;;;;;;11.24;100.00;100847.72;4985570;28;20452;-77
2023/10/10 06:10:18;;;;;;;1.92;1.42;;;;;;;10.98;100.00;100811.72;4985150;28;20050;-74
2023/10/10 06:12:48;;;;;;;2.40;1.45;;;;;;;11.88;100.00;100954.88;4985090;28;20046;-75
2023/10/10 06:15:17;;;;;;;1.00;0.80;;;;;;;11.81;100.00;100932.91;5016454;28;20042;-76
2023/10/10 06:18:08;;;;;;;2.65;1.67;;;;;;;11.16;100.00;100826.66;4985610;28;20051;-77
2023/10/10 06:20:40;;;;;;;1.55;1.45;;;;;;;11.35;100.00;100846.00;4977517;28;20130;-77
2023/10/10 06:23:08;;;;;;;3.77;1.40;;;;;;;12.16;100.00;100971.63;5006415;28;20030;-75
2023/10/10 06:25:34;;;;;;;1.17;0.75;;;;;;;11.80;100.00;100925.91;4984799;28;20719;-75
2023/10/10 06:28:00;;;;;;;0.47;0.45;;;;;;;11.59;100.00;100882.91;4985639;28;20062;-76
2023/10/10 06:30:26;;;;;;;0.88;0.82;;;;;;;12.24;100.00;100949.72;5016100;28;20769;-76
2023/10/10 06:33:08;;;;;;;2.53;2.33;;;;;;;12.26;100.00;100947.09;4984892;28;20093;-76
2023/10/10 06:35:37;;;;;;;1.88;1.60;;;;;;;12.28;100.00;100979.53;4984696;28;21477;-76
2023/10/10 06:38:03;;;;;;;0.50;0.50;;;;;;;11.77;100.00;100866.28;4984304;28;20478;-76
2023/10/10 06:40:29;;;;;;;1.00;0.95;;;;;;;12.46;100.00;100982.22;4984250;28;20046;-75
2023/10/10 06:42:56;;;;;;;1.88;1.75;;;;;;;12.48;99.89;100965.53;4984989;28;20132;-75
2023/10/10 06:45:23;;;;;;;2.25;1.70;;;;;;;12.73;99.46;100991.00;4986199;28;20089;-75
2023/10/10 06:47:51;;;;;;;8.63;2.85;;;;;;;12.80;96.89;101005.06;4985716;28;20070;-76
2023/10/10 06:50:21;;;;;;;3.67;1.20;;;;;;;12.58;96.09;100957.66;4985813;28;20030;-75
2023/10/10 06:52:54;;;;;;;0.20;0.20;;;;;;;12.46;97.03;100895.34;4985277;28;20092;-77
2023/10/10 06:55:23;;;;;;;18.63;2.15;;;;;;;13.19;94.12;100990.13;4978363;28;20062;-76
2023/10/10 06:57:58;;;;;;;3.88;2.72;;;;;;;13.30;93.44;100983.09;4985229;28;20537;-76
2023/10/10 07:00:28;;;;;;;0.95;0.57;;;;;;;12.87;93.04;100926.03;4979541;28;20062;-76
2023/10/10 07:02:57;;;;;;;1.50;1.40;;;;;;;13.44;93.62;100989.22;4985717;28;20058;-77
2023/10/10 07:05:27;;;;;;;1.13;0.82;;;;;;;13.53;89.25;100993.56;4985305;28;20148;-76
2023/10/10 07:07:58;;;;;;;5.35;1.30;;;;;;;13.24;89.26;100964.63;4984817;28;20145;-75
2023/10/10 07:10:36;;;;;;;1.20;1.13;;;;;;;13.40;89.35;100941.78;4987947;28;20042;-76
2023/10/10 07:13:03;;;;;;;10.05;1.58;;;;;;;13.84;88.20;100967.13;4984277;28;20049;-75
2023/10/10 07:15:35;;;;;;;2.60;1.35;;;;;;;13.91;86.27;100967.06;4984978;28;20426;-76
2023/10/10 07:18:14;;;;;;;1.50;1.40;;;;;;;13.52;84.74;100934.69;4978022;28;20108;-74
2023/10/10 07:23:36;;;;;;;1.25;1.15;;;;;;;14.15;85.86;100959.91;4982504;28;20045;-77
2023/10/10 07:26:05;;;;;;;2.95;2.65;;;;;;;14.42;84.92;100984.38;4985777;28;20042;-75
2023/10/10 07:28:36;;;;;;;3.33;1.60;;;;;;;14.31;87.53;100979.16;4982697;28;20042;-76
2023/10/10 07:31:02;;;;;;;5.28;2.00;;;;;;;14.13;83.93;100959.03;4984583;28;20140;-76
2023/10/10 07:33:40;;;;;;;0.70;0.70;;;;;;;14.06;86.36;100991.63;4984419;28;20065;-75
2023/10/10 07:36:06;;;;;;;2.15;0.93;;;;;;;14.25;88.31;101013.50;4983146;28;20077;-75
2023/10/10 07:38:35;;;;;;;1.13;1.08;;;;;;;13.72;87.48;100888.91;4978321;28;20402;-76
2023/10/10 07:41:04;;;;;;;0.40;0.40;;;;;;;14.23;87.00;101010.00;4983361;28;20041;-77
2023/10/10 07:43:34;;;;;;;0.50;0.50;;;;;;;13.47;85.30;100875.84;4983416;28;20085;-78
2023/10/10 07:46:12;;;;;;;2.20;2.05;;;;;;;14.21;81.17;100982.72;4984865;28;20126;-75
2023/10/10 07:48:39;;;;;;;0.55;0.55;;;;;;;13.88;78.97;100909.06;4985086;28;20113;-76
2023/10/10 07:51:08;;;;;;;0.82;0.57;;;;;;;14.69;76.17;101007.97;4985152;28;20046;-76
2023/10/10 07:53:44;;;;;;;0.30;0.30;;;;;;;14.62;71.50;101010.69;4985036;28;20027;-74
2023/10/10 07:56:10;;;;;;;0.98;0.43;;;;;;;14.66;70.70;100997.44;4985202;28;20030;-75
2023/10/10 07:58:56;;;;;;;1.05;0.85;;;;;;;14.73;68.60;101022.06;5000321;28;20398;-76
2023/10/10 08:01:23;;;;;;;0.50;0.30;;;;;;;14.63;67.44;101004.50;4985117;28;20474;-77
2023/10/10 08:03:49;;;;;;;0.30;0.30;;;;;;;14.83;67.14;101001.72;4985100;28;20050;-74
2023/10/10 08:06:18;;;;;;;3.17;1.67;;;;;;;14.92;65.51;100991.94;4970034;28;20046;-77
2023/10/10 08:08:48;;;;;;;1.20;1.10;;;;;;;15.28;64.25;101018.06;4958007;28;20653;-76
2023/10/10 08:11:14;;;;;;;1.38;0.82;;;;;;;14.33;66.37;100908.75;4955997;28;20031;-78
2023/10/10 08:13:48;;;;;;;2.53;2.10;;;;;;;14.63;68.71;101000.09;4983612;28;20058;-77
2023/10/10 08:16:20;;;;;;;1.33;1.17;;;;;;;14.82;71.83;101024.63;4981033;28;20054;-75
2023/10/10 08:21:13;;;;;;;4.47;1.75;;;;;;;14.62;74.41;100971.06;4979573;28;20376;-76
2023/10/10 08:23:45;;;;;;;0.40;0.40;;;;;;;14.45;74.51;100921.88;4976710;28;20742;-76
2023/10/10 08:26:24;;;;;;;0.47;0.47;;;;;;;15.19;73.98;101008.44;4983812;28;20145;-77
2023/10/10 08:28:50;;;;;;;0.40;0.40;;;;;;;15.50;71.83;101030.19;4979852;28;20789;-77
2023/10/10 08:31:16;;;;;;;0.32;0.32;;;;;;;15.65;70.51;101026.50;4986291;28;20057;-76
2023/10/10 08:33:49;;;;;;;0.38;0.38;;;;;;;15.15;67.86;101031.41;4986620;28;20068;-77
2023/10/10 08:36:23;;;;;;;0.77;0.77;;;;;;;15.22;68.71;101021.66;5000641;28;20058;-78
2023/10/10 08:39:24;;;;;;;0.75;0.75;;;;;;;15.41;67.54;101023.22;4982914;28;20055;-76
2023/10/10 08:41:45;;;;;;;1.80;1.10;;;;;;;14.83;65.55;100918.03;4978826;28;20634;-78
2023/10/10 08:44:19;;;;;;;0.40;0.40;;;;;;;15.28;64.13;101003.06;4985390;28;20045;-77
2023/10/10 08:46:46;;;;;;;0.22;0.20;;;;;;;15.63;63.23;101025.63;4986493;28;20046;-78
2023/10/10 08:49:13;;;;;;;0.20;0.20;;;;;;;14.95;62.66;100925.84;4985946;28;20046;-76
2023/10/10 08:51:39;;;;;;;1.33;1.00;;;;;;;15.81;62.44;101027.22;4986918;28;20042;-76
2023/10/10 08:54:12;;;;;;;0.95;0.75;;;;;;;15.03;63.60;100954.88;4985401;28;20058;-77
2023/10/10 08:59:31;;;;;;;1.48;1.17;;;;;;;14.88;65.42;100925.94;4982693;28;20051;-77
2023/10/10 09:02:12;;;;;;;1.17;0.98;;;;;;;15.75;65.20;101044.03;4986510;28;20069;-76
2023/10/10 09:04:38;;;;;;;2.25;1.60;;;;;;;15.71;64.79;101042.34;4983863;28;20558;-77
2023/10/10 09:07:08;;;;;;;0.70;0.70;;;;;;;15.23;64.09;101009.28;4979517;28;20124;-76
2023/10/10 09:09:40;;;;;;;0.60;0.60;;;;;;;15.18;63.71;100962.63;4985203;28;20046;-76
2023/10/10 09:12:14;;;;;;;0.43;0.32;;;;;;;15.19;63.43;100967.03;4980496;28;20085;-75
2023/10/10 09:14:42;;;;;;;0.77;0.75;;;;;;;15.79;64.03;101051.06;4985621;28;20070;-75
2023/10/10 09:17:22;;;;;;;0.63;0.57;;;;;;;15.70;63.17;101055.53;4988062;28;20027;-76
2023/10/10 09:19:48;;;;;;;1.13;1.10;;;;;;;15.38;62.90;100953.59;4979688;28;20050;-76
2023/10/10 09:22:42;;;;;;;1.27;0.60;;;;;;;16.09;62.39;101035.72;4987285;28;20050;-76
2023/10/10 09:25:31;;;;;;;;;;;;;;;16.04;61.41;101064.88;4983375;28;20053;-75
2023/10/10 09:28:04;;;;;;;0.55;0.55;;;;;;;15.39;62.62;101032.91;5012404;28;20282;-76
2023/10/10 09:30:45;;;;;;;1.05;0.95;;;;;;;15.39;62.96;101038.22;4987585;28;20054;-78
2023/10/10 09:36:19;;;;;;;0.30;0.20;;;;;;;15.39;62.25;100960.66;4996566;28;20586;-77
2023/10/10 09:38:46;;;;;;;0.63;0.60;;;;;;;15.54;61.75;101036.31;4986592;28;20034;-77
2023/10/10 09:58:00;;;;;;;0.20;0.20;;;;;;;16.61;59.66;101028.81;4990774;28;20057;-76
2023/10/10 10:06:34;;;;;;;0.20;0.20;;;;;;;16.46;58.21;101036.09;4975843;28;20059;-77
2023/10/10 10:09:21;;;;;;;0.35;0.35;;;;;;;16.70;57.39;101049.88;4958836;28;20089;-76
2023/10/10 10:12:19;;;;;;;0.98;0.68;;;;;;;16.11;56.81;100950.94;4964503;28;20046;-75
2023/10/10 10:15:05;;;;;;;0.93;0.93;;;;;;;16.67;55.85;101044.63;4986410;28;20054;-78
2023/10/10 10:17:54;;;;;;;1.33;1.00;;;;;;;16.17;56.76;101046.19;5017213;28;20509;-76
2023/10/10 10:20:45;;;;;;;0.65;0.47;;;;;;;16.59;56.31;101049.16;4980904;28;20104;-77
2023/10/10 10:23:27;;;;;;;0.82;0.82;;;;;;;16.54;55.87;100972.38;4983147;28;20042;-76
2023/10/10 10:25:54;;;;;;;0.32;0.32;;;;;;;16.59;55.42;100957.28;4986238;28;20046;-76
2023/10/10 10:28:28;;;;;;;0.30;0.30;;;;;;;17.02;55.30;101043.19;4989596;28;20082;-75
2023/10/10 10:30:54;;;;;;;2.33;2.17;;;;;;;17.30;54.84;101019.75;4980249;28;20491;-75
2023/10/10 10:33:24;;;;;;;0.95;0.50;;;;;;;17.41;53.44;101030.16;4986561;28;20078;-78
2023/10/10 10:36:05;;;;;;;6.85;1.00;;;;;;;17.06;53.89;100931.75;4984173;28;20042;-76
2023/10/10 10:38:31;;;;;;;0.20;0.20;;;;;;;17.38;53.64;100979.81;4986210;28;20054;-76
2023/10/10 10:41:07;;;;;;;0.38;0.38;;;;;;;16.84;53.31;100931.28;4974904;28;20066;-77
2023/10/10 10:43:39;;;;;;;0.90;0.80;;;;;;;16.78;53.37;100907.50;4966605;28;20082;-77
2023/10/10 10:46:14;;;;;;;0.57;0.57;;;;;;;16.66;52.55;100924.47;4974107;28;20046;-77
2023/10/10 10:48:47;;;;;;;0.80;0.77;;;;;;;17.56;52.96;101021.94;4983203;28;20050;-78
2023/10/10 10:51:25;;;;;;;0.20;0.20;;;;;;;18.11;51.85;101018.16;4978158;28;20089;-81
2023/10/10 10:53:58;;;;;;;0.20;0.20;;;;;;;18.05;51.22;101025.38;4981206;28;20571;-75
2023/10/10 10:59:19;;;;;;;0.90;0.68;;;;;;;17.90;51.27;100929.22;4984919;28;20431;-77
2023/10/10 11:01:52;;;;;;;0.20;0.20;;;;;;;18.46;50.76;101024.50;5016286;28;20058;-79
2023/10/10 11:07:01;;;;;;;3.55;2.28;;;;;;;18.03;50.15;101006.84;4984894;28;20057;-76
2023/10/10 11:09:28;;;;;;;1.58;1.48;;;;;;;17.82;50.34;100914.41;4982369;28;20496;-77
2023/10/10 11:12:01;;;;;;;0.43;0.43;;;;;;;18.19;50.60;101019.78;4972344;28;20133;-80
2023/10/10 11:14:29;;;;;;;0.88;0.88;;;;;;;17.71;50.39;100979.16;4979971;28;20031;-76
2023/10/10 11:16:58;;;;;;;0.88;0.85;;;;;;;18.40;50.02;101024.63;4983153;28;20605;-78
2023/10/10 11:19:38;;;;;;;2.55;2.33;;;;;;;18.08;50.03;100993.47;4981153;28;20089;-77
2023/10/10 11:22:05;;;;;;;0.52;0.52;;;;;;;18.32;49.84;101014.16;4984540;28;20054;-82
2023/10/10 11:24:32;;;;;;;0.20;0.20;;;;;;;18.27;50.34;101020.50;4984226;28;20039;-77
2023/10/10 11:29:45;;;;;;;0.60;0.45;;;;;;;18.06;50.27;100990.84;4985110;28;20449;-77
2023/10/10 11:32:24;;;;;;;0.40;0.40;;;;;;;18.09;49.69;101043.03;4983318;28;20570;-76
2023/10/10 11:34:59;;;;;;;0.50;0.38;;;;;;;17.72;50.44;101033.09;4982037;28;20146;-81
2023/10/10 11:37:32;;;;;;;0.85;0.75;;;;;;;17.95;50.16;101021.19;4967984;28;20133;-80
2023/10/10 11:42:54;;;;;;;1.13;1.02;;;;;;;17.71;49.71;100922.53;4986083;28;20112;-76
2023/10/10 11:45:25;;;;;;;0.20;0.20;;;;;;;17.48;50.12;100939.81;4980590;28;20145;-76
2023/10/10 11:48:00;;;;;;;0.68;0.65;;;;;;;18.04;49.83;101008.59;4980971;28;20136;-77
2023/10/10 11:50:46;;;;;;;3.60;1.42;;;;;;;17.80;50.53;100996.69;4978644;28;20038;-76
2023/10/10 11:53:14;;;;;;;0.45;0.45;;;;;;;18.09;50.45;101019.97;4985155;28;20137;-77
2023/10/10 11:55:42;;;;;;;1.02;0.93;;;;;;;17.63;50.82;101028.88;4981428;28;20055;-79
2023/10/10 11:58:08;;;;;;;0.40;0.40;;;;;;;17.57;50.52;101009.53;4984658;28;20043;-76
2023/10/10 12:00:43;;;;;;;0.20;0.20;;;;;;;17.78;50.39;100981.69;4984036;28;20401;-77
2023/10/10 12:03:10;;;;;;;0.40;0.40;;;;;;;17.97;50.27;101020.25;4987595;28;20526;-78
2023/10/10 12:05:36;;;;;;;0.20;0.20;;;;;;;17.97;51.20;101014.94;4989096;28;20066;-77
2023/10/10 12:08:06;;;;;;;0.75;0.75;;;;;;;17.72;50.16;100980.00;4988749;28;20145;-78
2023/10/10 12:13:09;;;;;;;5.20;1.67;;;;;;;17.09;50.73;100915.81;4988859;28;20387;-77
2023/10/10 12:15:44;;;;;;;0.68;0.52;;;;;;;17.62;50.76;100991.72;4981710;28;20821;-76
2023/10/10 12:18:11;;;;;;;1.48;1.05;;;;;;;17.76;51.19;101004.72;5014106;28;20056;-76
2023/10/10 12:20:44;;;;;;;2.05;1.05;;;;;;;18.13;50.31;101004.88;4984852;28;20038;-76
2023/10/10 12:23:15;;;;;;;0.85;0.52;;;;;;;18.19;50.54;100998.53;4986570;28;20038;-76
2023/10/10 12:25:41;;;;;;;4.38;1.23;;;;;;;17.54;50.74;100999.84;4984449;28;20042;-75
2023/10/10 12:28:12;;;;;;;0.30;0.20;;;;;;;17.26;51.33;101020.72;4986765;28;20053;-77
2023/10/10 12:30:41;;;;;;;2.50;2.30;;;;;;;17.55;51.24;101009.53;4985445;28;20490;-76
2023/10/10 12:33:13;;;;;;;0.57;0.57;;;;;;;17.50;51.20;101000.81;4988708;28;20035;-75
2023/10/10 12:35:42;;;;;;;1.17;1.08;;;;;;;18.06;51.35;101020.06;4985765;28;20043;-76
2023/10/10 12:38:09;;;;;;;0.22;0.22;;;;;;;18.02;50.70;100991.81;4985715;28;20050;-77
2023/10/10 12:40:35;;;;;;;0.15;0.15;;;;;;;17.56;51.26;101021.94;4986801;28;20498;-76
2023/10/10 12:43:03;;;;;;;1.38;1.23;;;;;;;17.20;51.49;100928.00;4985952;28;20042;-77
2023/10/10 12:45:29;;;;;;;0.60;0.47;;;;;;;17.97;51.32;100998.13;4985738;28;20087;-75
2023/10/10 12:47:58;;;;;;;0.65;0.65;;;;;;;17.99;50.94;101010.47;4986486;28;20062;-74
2023/10/10 12:50:28;;;;;;;0.20;0.20;;;;;;;17.41;51.07;100914.28;4988665;28;20489;-76
2023/10/10 12:53:07;;;;;;;1.13;1.02;;;;;;;17.91;50.91;101013.28;4984998;28;20026;-75
2023/10/10 12:55:34;;;;;;;1.10;0.60;;;;;;;17.88;50.86;100993.88;4986023;28;20112;-77
2023/10/10 12:58:09;;;;;;;3.75;1.33;;;;;;;18.08;51.24;101017.38;4987523;28;20054;-77
2023/10/10 13:00:34;;;;;;;0.10;0.10;;;;;;;17.66;51.31;100990.78;4987639;28;20119;-75
2023/10/10 13:03:00;;;;;;;1.20;1.08;;;;;;;17.34;51.63;100994.91;4984168;28;20517;-78
2023/10/10 13:05:28;;;;;;;0.20;0.20;;;;;;;17.47;51.75;101007.06;4985498;28;20265;-76
2023/10/10 13:07:58;;;;;;;0.88;0.70;;;;;;;17.51;51.67;101005.19;4986675;28;20072;-75
2023/10/10 13:10:28;;;;;;;0.88;0.73;;;;;;;17.73;51.20;101021.59;4982460;28;20043;-76
2023/10/10 13:12:54;;;;;;;0.47;0.43;;;;;;;17.08;52.05;100914.06;4984316;28;20056;-76
2023/10/10 13:15:27;;;;;;;2.45;1.45;;;;;;;17.92;51.52;100995.56;4985624;28;20043;-75
2023/10/10 13:17:54;;;;;;;0.90;0.40;;;;;;;18.20;51.01;101010.94;4986027;28;20050;-76
2023/10/10 13:20:23;;;;;;;0.20;0.20;;;;;;;17.43;51.16;100903.66;4986617;28;20046;-76
2023/10/10 13:22:50;;;;;;;0.25;0.25;;;;;;;17.91;50.76;101015.94;4985370;28;20034;-74
2023/10/10 13:25:17;;;;;;;0.82;0.50;;;;;;;17.84;51.45;100969.19;4986001;28;20062;-77
2023/10/10 13:27:45;;;;;;;0.25;0.25;;;;;;;17.95;51.41;101003.47;4983688;28;20451;-75
2023/10/10 13:30:12;;;;;;;1.77;0.73;;;;;;;17.71;51.71;100994.19;4985565;28;20881;-77
2023/10/10 13:32:38;;;;;;;0.30;0.30;;;;;;;17.41;51.52;100913.44;4987067;28;20054;-78
2023/10/10 13:35:05;;;;;;;0.10;0.10;;;;;;;17.20;51.36;100910.28;4984992;28;20906;-78
2023/10/10 13:37:31;;;;;;;0.40;0.40;;;;;;;17.73;51.97;101018.94;4985497;28;20502;-80
2023/10/10 13:39:57;;;;;;;0.52;0.52;;;;;;;17.69;52.18;101012.81;4984340;28;20085;-77
2023/10/10 13:42:22;;;;;;;0.35;0.22;;;;;;;16.96;52.27;100938.16;4985103;28;20149;-78
2023/10/10 13:44:48;;;;;;;1.15;0.80;;;;;;;16.89;52.33;100910.00;4986246;28;20076;-80
2023/10/10 13:47:16;;;;;;;18.20;1.95;;;;;;;17.02;52.23;100879.72;4986669;28;20026;-79
2023/10/10 13:49:45;;;;;;;1.48;1.38;;;;;;;17.75;51.67;101021.53;4983781;28;20174;-77
2023/10/10 13:52:16;;;;;;;0.52;0.52;;;;;;;17.48;51.91;100994.66;4985067;28;20066;-77
2023/10/10 13:54:41;;;;;;;0.57;0.57;;;;;;;17.67;52.11;101019.06;4982765;28;20410;-75
2023/10/10 13:57:07;;;;;;;0.70;0.70;;;;;;;17.20;51.88;100926.19;4975680;28;20124;-77
2023/10/10 13:59:33;;;;;;;0.20;0.20;;;;;;;17.24;51.81;100956.22;4983400;28;20034;-76
2023/10/10 14:02:03;;;;;;;0.47;0.45;;;;;;;17.12;51.63;100936.09;4975572;28;20046;-77
2023/10/10 14:04:45;;;;;;;0.50;0.50;;;;;;;17.54;51.60;101028.19;4974691;28;20059;-76
2023/10/10 14:07:14;;;;;;;0.20;0.20;;;;;;;17.50;51.96;101036.16;4979235;28;20129;-76
2023/10/10 14:09:40;;;;;;;0.30;0.30;;;;;;;16.28;52.42;100900.41;4972545;28;20046;-80
2023/10/10 14:12:08;;;;;;;0.35;0.35;;;;;;;17.30;52.50;101039.19;4983612;28;20054;-77
2023/10/10 14:14:34;;;;;;;0.20;0.20;;;;;;;17.42;52.00;101019.53;4978986;28;20073;-79
2023/10/10 14:16:59;;;;;;;0.75;0.75;;;;;;;17.09;51.47;100957.34;4979537;28;20414;-77
2023/10/10 14:19:25;;;;;;;2.10;1.40;;;;;;;17.44;51.46;101017.72;4977242;28;20141;-76
2023/10/10 14:21:54;;;;;;;0.47;0.43;;;;;;;17.28;52.25;101021.56;4978415;28;20044;-74
2023/10/10 14:24:20;;;;;;;1.00;0.90;;;;;;;17.05;52.24;101011.34;4980465;28;20502;-77
2023/10/10 14:26:48;;;;;;;1.15;1.05;;;;;;;16.91;52.60;101022.19;4978197;28;20166;-75
2023/10/10 14:29:14;;;;;;;0.20;0.20;;;;;;;16.61;52.33;100960.78;4980944;28;20339;-77
2023/10/10 14:31:44;;;;;;;0.90;0.52;;;;;;;16.54;52.64;100955.63;4977458;28;20141;-76
2023/10/10 14:34:19;;;;;;;1.65;0.85;;;;;;;17.04;52.45;101031.69;4978066;28;20054;-76